sensor_id;sensor_type;location;lat;lon;timestamp;P1;durP1;ratioP1;P2;durP2;ratioP2
8536;SDS011;4306;50.210;10.628;2023-02-22T00:00:29;6.67;;;3.60;;
8536;SDS011;4306;50.210;10.628;2023-02-22T00:03:07;4.88;;;3.10;;
8536;SDS011;4306;50.210;10.628;2023-02-22T00:05:35;6.72;;;2.58;;
8536;SDS011;4306;50.210;10.628;2023-02-22T00:08:04;7.63;;;2.63;;
8536;SDS011;4306;50.210;10.628;2023-02-22T00:10:33;3.60;;;2.25;;
8536;SDS011;4306;50.210;10.628;2023-02-22T00:13:02;4.70;;;3.03;;
8536;SDS011;4306;50.210;10.628;2023-02-22T00:15:32;7.05;;;3.00;;
8536;SDS011;4306;50.210;10.628;2023-02-22T00:18:00;6.32;;;3.58;;
8536;SDS011;4306;50.210;10.628;2023-02-22T00:20:28;6.10;;;3.80;;
8536;SDS011;4306;50.210;10.628;2023-02-22T00:22:55;5.35;;;3.00;;
8536;SDS011;4306;50.210;10.628;2023-02-22T00:25:25;7.30;;;3.73;;
8536;SDS011;4306;50.210;10.628;2023-02-22T00:27:52;10.93;;;4.18;;
8536;SDS011;4306;50.210;10.628;2023-02-22T00:30:21;8.53;;;4.43;;
8536;SDS011;4306;50.210;10.628;2023-02-22T00:32:52;7.95;;;4.45;;
8536;SDS011;4306;50.210;10.628;2023-02-22T00:35:21;11.30;;;3.85;;
8536;SDS011;4306;50.210;10.628;2023-02-22T00:37:50;6.87;;;3.90;;
8536;SDS011;4306;50.210;10.628;2023-02-22T00:40:18;7.63;;;3.65;;
8536;SDS011;4306;50.210;10.628;2023-02-22T00:42:46;4.47;;;2.83;;
8536;SDS011;4306;50.210;10.628;2023-02-22T00:45:15;5.77;;;3.50;;
8536;SDS011;4306;50.210;10.628;2023-02-22T00:47:43;6.72;;;3.05;;
8536;SDS011;4306;50.210;10.628;2023-02-22T00:50:13;8.77;;;3.80;;
8536;SDS011;4306;50.210;10.628;2023-02-22T00:52:40;5.68;;;3.15;;
8536;SDS011;4306;50.210;10.628;2023-02-22T00:55:09;5.80;;;2.92;;
8536;SDS011;4306;50.210;10.628;2023-02-22T00:57:41;5.28;;;3.03;;
8536;SDS011;4306;50.210;10.628;2023-02-22T01:00:08;8.13;;;3.38;;
8536;SDS011;4306;50.210;10.628;2023-02-22T01:02:41;5.82;;;2.95;;
8536;SDS011;4306;50.210;10.628;2023-02-22T01:05:09;5.65;;;3.17;;
8536;SDS011;4306;50.210;10.628;2023-02-22T01:07:39;4.38;;;2.80;;
8536;SDS011;4306;50.210;10.628;2023-02-22T01:10:06;6.22;;;3.00;;
8536;SDS011;4306;50.210;10.628;2023-02-22T01:12:34;6.45;;;3.33;;
8536;SDS011;4306;50.210;10.628;2023-02-22T01:15:01;6.50;;;3.50;;
8536;SDS011;4306;50.210;10.628;2023-02-22T01:17:29;6.38;;;3.47;;
8536;SDS011;4306;50.210;10.628;2023-02-22T01:19:56;7.40;;;4.15;;
8536;SDS011;4306;50.210;10.628;2023-02-22T01:22:24;5.83;;;3.30;;
8536;SDS011;4306;50.210;10.628;2023-02-22T01:24:52;7.15;;;3.78;;
8536;SDS011;4306;50.210;10.628;2023-02-22T01:27:19;5.90;;;3.58;;
8536;SDS011;4306;50.210;10.628;2023-02-22T01:29:47;5.95;;;3.50;;
8536;SDS011;4306;50.210;10.628;2023-02-22T01:32:15;5.43;;;3.00;;
8536;SDS011;4306;50.210;10.628;2023-02-22T01:34:41;6.93;;;3.60;;
8536;SDS011;4306;50.210;10.628;2023-02-22T01:37:08;5.25;;;3.00;;
8536;SDS011;4306;50.210;10.628;2023-02-22T01:39:37;5.13;;;2.80;;
8536;SDS011;4306;50.210;10.628;2023-02-22T01:42:03;5.80;;;3.20;;
8536;SDS011;4306;50.210;10.628;2023-02-22T01:44:31;5.60;;;3.10;;
8536;SDS011;4306;50.210;10.628;2023-02-22T01:47:00;6.53;;;3.33;;
8536;SDS011;4306;50.210;10.628;2023-02-22T01:49:28;4.30;;;2.80;;
8536;SDS011;4306;50.210;10.628;2023-02-22T01:52:01;7.27;;;3.63;;
8536;SDS011;4306;50.210;10.628;2023-02-22T01:54:33;8.00;;;3.57;;
8536;SDS011;4306;50.210;10.628;2023-02-22T01:57:05;9.83;;;4.43;;
8536;SDS011;4306;50.210;10.628;2023-02-22T01:59:36;19.33;;;5.30;;
8536;SDS011;4306;50.210;10.628;2023-02-22T02:02:07;22.53;;;4.73;;
8536;SDS011;4306;50.210;10.628;2023-02-22T02:04:33;24.40;;;5.33;;
8536;SDS011;4306;50.210;10.628;2023-02-22T02:07:03;26.92;;;5.50;;
8536;SDS011;4306;50.210;10.628;2023-02-22T02:09:33;7.30;;;4.10;;
8536;SDS011;4306;50.210;10.628;2023-02-22T02:12:06;6.23;;;3.30;;
8536;SDS011;4306;50.210;10.628;2023-02-22T02:14:36;6.43;;;3.33;;
8536;SDS011;4306;50.210;10.628;2023-02-22T02:17:05;7.60;;;3.73;;
8536;SDS011;4306;50.210;10.628;2023-02-22T02:19:37;7.22;;;3.40;;
8536;SDS011;4306;50.210;10.628;2023-02-22T02:22:16;6.33;;;3.77;;
8536;SDS011;4306;50.210;10.628;2023-02-22T02:30:57;30.37;;;6.47;;
8536;SDS011;4306;50.210;10.628;2023-02-22T02:33:46;34.10;;;6.07;;
8536;SDS011;4306;50.210;10.628;2023-02-22T02:36:18;8.63;;;4.23;;
8536;SDS011;4306;50.210;10.628;2023-02-22T02:38:53;8.02;;;3.92;;
8536;SDS011;4306;50.210;10.628;2023-02-22T02:41:26;6.67;;;4.10;;
8536;SDS011;4306;50.210;10.628;2023-02-22T02:43:57;9.77;;;4.18;;
8536;SDS011;4306;50.210;10.628;2023-02-22T02:46:29;7.57;;;4.00;;
8536;SDS011;4306;50.210;10.628;2023-02-22T02:49:01;8.80;;;4.33;;
8536;SDS011;4306;50.210;10.628;2023-02-22T02:51:31;17.33;;;4.43;;
8536;SDS011;4306;50.210;10.628;2023-02-22T02:54:01;19.80;;;4.60;;
8536;SDS011;4306;50.210;10.628;2023-02-22T02:56:29;20.90;;;4.80;;
8536;SDS011;4306;50.210;10.628;2023-02-22T02:58:56;21.42;;;4.60;;
8536;SDS011;4306;50.210;10.628;2023-02-22T03:01:29;18.97;;;4.17;;
8536;SDS011;4306;50.210;10.628;2023-02-22T03:04:19;41.30;;;5.10;;
8536;SDS011;4306;50.210;10.628;2023-02-22T03:06:57;37.23;;;4.20;;
8536;SDS011;4306;50.210;10.628;2023-02-22T03:09:34;54.42;;;5.55;;
8536;SDS011;4306;50.210;10.628;2023-02-22T03:12:10;44.33;;;5.77;;
8536;SDS011;4306;50.210;10.628;2023-02-22T03:14:47;68.50;;;6.80;;
8536;SDS011;4306;50.210;10.628;2023-02-22T03:17:26;30.33;;;4.77;;
8536;SDS011;4306;50.210;10.628;2023-02-22T03:20:04;42.50;;;5.07;;
8536;SDS011;4306;50.210;10.628;2023-02-22T03:22:38;11.30;;;4.67;;
8536;SDS011;4306;50.210;10.628;2023-02-22T03:25:13;8.00;;;4.00;;
8536;SDS011;4306;50.210;10.628;2023-02-22T03:27:44;5.23;;;2.67;;
8536;SDS011;4306;50.210;10.628;2023-02-22T03:30:15;8.50;;;3.73;;
8536;SDS011;4306;50.210;10.628;2023-02-22T03:32:48;6.60;;;3.35;;
8536;SDS011;4306;50.210;10.628;2023-02-22T03:35:21;6.65;;;3.53;;
8536;SDS011;4306;50.210;10.628;2023-02-22T03:37:52;6.57;;;3.90;;
8536;SDS011;4306;50.210;10.628;2023-02-22T03:40:24;9.33;;;4.57;;
8536;SDS011;4306;50.210;10.628;2023-02-22T03:42:53;6.25;;;3.58;;
8536;SDS011;4306;50.210;10.628;2023-02-22T03:45:24;7.13;;;3.85;;
8536;SDS011;4306;50.210;10.628;2023-02-22T03:47:56;7.35;;;3.95;;
8536;SDS011;4306;50.210;10.628;2023-02-22T03:50:30;8.00;;;4.47;;
8536;SDS011;4306;50.210;10.628;2023-02-22T03:53:00;6.80;;;3.93;;
8536;SDS011;4306;50.210;10.628;2023-02-22T03:55:29;8.87;;;4.07;;
8536;SDS011;4306;50.210;10.628;2023-02-22T03:57:57;9.00;;;3.60;;
8536;SDS011;4306;50.210;10.628;2023-02-22T04:00:28;7.73;;;3.63;;
8536;SDS011;4306;50.210;10.628;2023-02-22T04:02:57;8.23;;;4.50;;
8536;SDS011;4306;50.210;10.628;2023-02-22T04:05:24;8.40;;;4.33;;
8536;SDS011;4306;50.210;10.628;2023-02-22T04:07:52;6.80;;;3.70;;
8536;SDS011;4306;50.210;10.628;2023-02-22T04:10:19;8.63;;;4.20;;
8536;SDS011;4306;50.210;10.628;2023-02-22T04:12:47;6.53;;;3.42;;
8536;SDS011;4306;50.210;10.628;2023-02-22T04:15:17;9.18;;;4.03;;
8536;SDS011;4306;50.210;10.628;2023-02-22T04:17:45;9.00;;;4.07;;
8536;SDS011;4306;50.210;10.628;2023-02-22T04:20:12;7.20;;;3.87;;
8536;SDS011;4306;50.210;10.628;2023-02-22T04:22:39;8.57;;;4.07;;
8536;SDS011;4306;50.210;10.628;2023-02-22T04:25:08;13.43;;;4.30;;
8536;SDS011;4306;50.210;10.628;2023-02-22T04:27:34;22.43;;;4.83;;
8536;SDS011;4306;50.210;10.628;2023-02-22T04:30:01;18.17;;;4.60;;
8536;SDS011;4306;50.210;10.628;2023-02-22T04:32:29;15.23;;;4.13;;
8536;SDS011;4306;50.210;10.628;2023-02-22T04:34:55;8.52;;;4.15;;
8536;SDS011;4306;50.210;10.628;2023-02-22T04:37:22;18.70;;;4.57;;
8536;SDS011;4306;50.210;10.628;2023-02-22T04:39:49;18.50;;;4.50;;
8536;SDS011;4306;50.210;10.628;2023-02-22T04:42:17;11.75;;;4.03;;
8536;SDS011;4306;50.210;10.628;2023-02-22T04:44:44;10.97;;;3.77;;
8536;SDS011;4306;50.210;10.628;2023-02-22T04:47:11;15.30;;;4.27;;
8536;SDS011;4306;50.210;10.628;2023-02-22T04:49:38;9.40;;;3.20;;
8536;SDS011;4306;50.210;10.628;2023-02-22T04:52:05;8.33;;;3.60;;
8536;SDS011;4306;50.210;10.628;2023-02-22T04:54:32;11.87;;;4.13;;
8536;SDS011;4306;50.210;10.628;2023-02-22T04:56:59;8.93;;;3.80;;
8536;SDS011;4306;50.210;10.628;2023-02-22T04:59:27;9.90;;;3.90;;
8536;SDS011;4306;50.210;10.628;2023-02-22T05:01:54;6.07;;;3.40;;
8536;SDS011;4306;50.210;10.628;2023-02-22T05:04:21;6.60;;;3.40;;
8536;SDS011;4306;50.210;10.628;2023-02-22T05:06:47;8.23;;;4.23;;
8536;SDS011;4306;50.210;10.628;2023-02-22T05:09:14;7.60;;;4.03;;
8536;SDS011;4306;50.210;10.628;2023-02-22T05:11:41;7.60;;;3.50;;
8536;SDS011;4306;50.210;10.628;2023-02-22T05:14:08;6.50;;;3.53;;
8536;SDS011;4306;50.210;10.628;2023-02-22T05:16:36;8.70;;;3.50;;
8536;SDS011;4306;50.210;10.628;2023-02-22T05:19:03;9.53;;;4.70;;
8536;SDS011;4306;50.210;10.628;2023-02-22T05:21:30;10.47;;;4.50;;
8536;SDS011;4306;50.210;10.628;2023-02-22T05:23:57;6.93;;;3.83;;
8536;SDS011;4306;50.210;10.628;2023-02-22T05:26:24;9.40;;;4.67;;
8536;SDS011;4306;50.210;10.628;2023-02-22T05:28:50;14.47;;;5.37;;
8536;SDS011;4306;50.210;10.628;2023-02-22T05:31:17;8.53;;;4.67;;
8536;SDS011;4306;50.210;10.628;2023-02-22T05:33:45;14.17;;;5.40;;
8536;SDS011;4306;50.210;10.628;2023-02-22T05:36:13;16.47;;;5.60;;
8536;SDS011;4306;50.210;10.628;2023-02-22T05:38:40;26.43;;;5.77;;
8536;SDS011;4306;50.210;10.628;2023-02-22T05:41:09;21.70;;;5.67;;
8536;SDS011;4306;50.210;10.628;2023-02-22T05:43:36;40.73;;;5.97;;
8536;SDS011;4306;50.210;10.628;2023-02-22T05:46:04;37.43;;;5.63;;
8536;SDS011;4306;50.210;10.628;2023-02-22T05:48:31;42.15;;;6.13;;
8536;SDS011;4306;50.210;10.628;2023-02-22T05:50:59;53.43;;;6.33;;
8536;SDS011;4306;50.210;10.628;2023-02-22T05:53:26;43.03;;;6.13;;
8536;SDS011;4306;50.210;10.628;2023-02-22T05:55:52;43.40;;;6.07;;
8536;SDS011;4306;50.210;10.628;2023-02-22T05:58:19;40.10;;;5.57;;
8536;SDS011;4306;50.210;10.628;2023-02-22T06:00:46;44.60;;;6.00;;
8536;SDS011;4306;50.210;10.628;2023-02-22T06:03:13;33.47;;;5.73;;
8536;SDS011;4306;50.210;10.628;2023-02-22T06:05:40;44.30;;;6.33;;
8536;SDS011;4306;50.210;10.628;2023-02-22T06:08:09;29.33;;;5.90;;
8536;SDS011;4306;50.210;10.628;2023-02-22T06:10:36;33.87;;;5.37;;
8536;SDS011;4306;50.210;10.628;2023-02-22T06:13:03;16.40;;;4.13;;
8536;SDS011;4306;50.210;10.628;2023-02-22T06:15:31;34.30;;;5.20;;
8536;SDS011;4306;50.210;10.628;2023-02-22T06:17:58;22.77;;;4.80;;
8536;SDS011;4306;50.210;10.628;2023-02-22T06:20:26;20.70;;;5.07;;
8536;SDS011;4306;50.210;10.628;2023-02-22T06:22:54;27.97;;;4.63;;
8536;SDS011;4306;50.210;10.628;2023-02-22T06:25:24;21.03;;;5.03;;
8536;SDS011;4306;50.210;10.628;2023-02-22T06:27:55;15.33;;;4.57;;
8536;SDS011;4306;50.210;10.628;2023-02-22T06:30:23;13.52;;;4.72;;
8536;SDS011;4306;50.210;10.628;2023-02-22T06:32:51;20.60;;;4.47;;
8536;SDS011;4306;50.210;10.628;2023-02-22T06:35:18;19.20;;;5.30;;
8536;SDS011;4306;50.210;10.628;2023-02-22T06:37:46;25.83;;;7.00;;
8536;SDS011;4306;50.210;10.628;2023-02-22T06:40:13;31.07;;;7.33;;
8536;SDS011;4306;50.210;10.628;2023-02-22T06:42:42;29.50;;;6.83;;
8536;SDS011;4306;50.210;10.628;2023-02-22T06:45:09;41.80;;;7.13;;
8536;SDS011;4306;50.210;10.628;2023-02-22T06:47:37;26.27;;;7.60;;
8536;SDS011;4306;50.210;10.628;2023-02-22T06:50:05;20.55;;;4.95;;
8536;SDS011;4306;50.210;10.628;2023-02-22T06:52:33;25.03;;;5.03;;
8536;SDS011;4306;50.210;10.628;2023-02-22T06:55:00;21.45;;;5.65;;
8536;SDS011;4306;50.210;10.628;2023-02-22T06:57:29;12.47;;;4.77;;
8536;SDS011;4306;50.210;10.628;2023-02-22T06:59:57;16.50;;;5.90;;
8536;SDS011;4306;50.210;10.628;2023-02-22T07:02:24;15.60;;;5.43;;
8536;SDS011;4306;50.210;10.628;2023-02-22T07:04:51;10.47;;;5.27;;
8536;SDS011;4306;50.210;10.628;2023-02-22T07:07:20;11.50;;;5.80;;
8536;SDS011;4306;50.210;10.628;2023-02-22T07:09:47;17.55;;;5.43;;
8536;SDS011;4306;50.210;10.628;2023-02-22T07:12:14;12.20;;;5.45;;
8536;SDS011;4306;50.210;10.628;2023-02-22T07:14:41;13.07;;;5.55;;
8536;SDS011;4306;50.210;10.628;2023-02-22T07:17:09;17.85;;;5.53;;
8536;SDS011;4306;50.210;10.628;2023-02-22T07:19:36;10.50;;;6.37;;
8536;SDS011;4306;50.210;10.628;2023-02-22T07:22:03;14.98;;;6.55;;
8536;SDS011;4306;50.210;10.628;2023-02-22T07:24:30;38.57;;;9.17;;
8536;SDS011;4306;50.210;10.628;2023-02-22T07:26:59;86.43;;;14.10;;
8536;SDS011;4306;50.210;10.628;2023-02-22T07:29:26;18.30;;;6.50;;
8536;SDS011;4306;50.210;10.628;2023-02-22T07:31:53;22.05;;;6.20;;
8536;SDS011;4306;50.210;10.628;2023-02-22T07:34:21;23.25;;;6.88;;
8536;SDS011;4306;50.210;10.628;2023-02-22T07:36:48;23.35;;;9.30;;
8536;SDS011;4306;50.210;10.628;2023-02-22T07:39:15;29.63;;;10.13;;
8536;SDS011;4306;50.210;10.628;2023-02-22T07:41:41;22.17;;;6.72;;
8536;SDS011;4306;50.210;10.628;2023-02-22T07:44:08;41.70;;;12.50;;
8536;SDS011;4306;50.210;10.628;2023-02-22T07:46:35;31.83;;;11.32;;
8536;SDS011;4306;50.210;10.628;2023-02-22T07:49:02;36.87;;;11.00;;
8536;SDS011;4306;50.210;10.628;2023-02-22T07:51:30;29.08;;;11.05;;
8536;SDS011;4306;50.210;10.628;2023-02-22T07:53:57;28.73;;;10.32;;
8536;SDS011;4306;50.210;10.628;2023-02-22T07:56:24;33.20;;;10.90;;
8536;SDS011;4306;50.210;10.628;2023-02-22T07:58:50;32.30;;;15.30;;
8536;SDS011;4306;50.210;10.628;2023-02-22T08:01:17;27.92;;;10.43;;
8536;SDS011;4306;50.210;10.628;2023-02-22T08:03:44;30.98;;;10.90;;
8536;SDS011;4306;50.210;10.628;2023-02-22T08:06:11;30.42;;;9.63;;
8536;SDS011;4306;50.210;10.628;2023-02-22T08:08:40;17.73;;;8.82;;
8536;SDS011;4306;50.210;10.628;2023-02-22T08:11:06;23.83;;;8.98;;
8536;SDS011;4306;50.210;10.628;2023-02-22T08:13:34;19.50;;;8.52;;
8536;SDS011;4306;50.210;10.628;2023-02-22T08:16:01;17.35;;;8.15;;
8536;SDS011;4306;50.210;10.628;2023-02-22T08:18:28;32.60;;;13.57;;
8536;SDS011;4306;50.210;10.628;2023-02-22T08:20:55;18.23;;;10.13;;
8536;SDS011;4306;50.210;10.628;2023-02-22T08:23:23;26.27;;;11.35;;
8536;SDS011;4306;50.210;10.628;2023-02-22T08:25:52;22.73;;;11.77;;
8536;SDS011;4306;50.210;10.628;2023-02-22T08:28:21;37.22;;;22.60;;
8536;SDS011;4306;50.210;10.628;2023-02-22T08:30:49;21.38;;;11.98;;
8536;SDS011;4306;50.210;10.628;2023-02-22T08:33:16;27.27;;;10.85;;
8536;SDS011;4306;50.210;10.628;2023-02-22T08:35:44;24.63;;;10.75;;
8536;SDS011;4306;50.210;10.628;2023-02-22T08:38:15;16.65;;;9.68;;
8536;SDS011;4306;50.210;10.628;2023-02-22T08:40:44;22.05;;;10.77;;
8536;SDS011;4306;50.210;10.628;2023-02-22T08:43:14;14.45;;;9.93;;
8536;SDS011;4306;50.210;10.628;2023-02-22T08:45:40;14.88;;;9.55;;
8536;SDS011;4306;50.210;10.628;2023-02-22T08:48:09;12.93;;;9.60;;
8536;SDS011;4306;50.210;10.628;2023-02-22T08:50:36;14.80;;;9.60;;
8536;SDS011;4306;50.210;10.628;2023-02-22T08:53:05;12.77;;;8.15;;
8536;SDS011;4306;50.210;10.628;2023-02-22T08:55:33;13.00;;;8.55;;
8536;SDS011;4306;50.210;10.628;2023-02-22T08:58:02;13.95;;;8.95;;
8536;SDS011;4306;50.210;10.628;2023-02-22T09:00:31;11.93;;;7.90;;
8536;SDS011;4306;50.210;10.628;2023-02-22T09:02:58;10.45;;;8.15;;
8536;SDS011;4306;50.210;10.628;2023-02-22T09:05:26;13.30;;;10.15;;
8536;SDS011;4306;50.210;10.628;2023-02-22T09:07:53;19.15;;;12.77;;
8536;SDS011;4306;50.210;10.628;2023-02-22T09:10:21;16.55;;;13.30;;
8536;SDS011;4306;50.210;10.628;2023-02-22T09:12:50;16.25;;;11.25;;
8536;SDS011;4306;50.210;10.628;2023-02-22T09:15:19;18.88;;;11.88;;
8536;SDS011;4306;50.210;10.628;2023-02-22T09:17:48;10.35;;;7.03;;
8536;SDS011;4306;50.210;10.628;2023-02-22T09:20:15;10.45;;;6.95;;
8536;SDS011;4306;50.210;10.628;2023-02-22T09:22:44;10.63;;;8.60;;
8536;SDS011;4306;50.210;10.628;2023-02-22T09:25:11;13.82;;;10.35;;
8536;SDS011;4306;50.210;10.628;2023-02-22T09:27:39;20.13;;;14.75;;
8536;SDS011;4306;50.210;10.628;2023-02-22T09:30:08;11.85;;;9.50;;
8536;SDS011;4306;50.210;10.628;2023-02-22T09:32:41;7.88;;;5.22;;
8536;SDS011;4306;50.210;10.628;2023-02-22T09:35:10;12.23;;;9.52;;
8536;SDS011;4306;50.210;10.628;2023-02-22T09:37:37;11.05;;;9.10;;
8536;SDS011;4306;50.210;10.628;2023-02-22T09:40:04;7.63;;;6.07;;
8536;SDS011;4306;50.210;10.628;2023-02-22T09:42:36;9.60;;;7.60;;
8536;SDS011;4306;50.210;10.628;2023-02-22T09:45:09;7.38;;;5.18;;
8536;SDS011;4306;50.210;10.628;2023-02-22T09:47:42;6.45;;;5.10;;
8536;SDS011;4306;50.210;10.628;2023-02-22T09:50:14;6.72;;;5.60;;
8536;SDS011;4306;50.210;10.628;2023-02-22T09:52:50;9.50;;;6.43;;
8536;SDS011;4306;50.210;10.628;2023-02-22T09:55:25;9.07;;;5.95;;
8536;SDS011;4306;50.210;10.628;2023-02-22T09:57:58;6.50;;;5.13;;
8536;SDS011;4306;50.210;10.628;2023-02-22T10:00:28;9.35;;;5.03;;
8536;SDS011;4306;50.210;10.628;2023-02-22T10:03:02;5.68;;;4.70;;
8536;SDS011;4306;50.210;10.628;2023-02-22T10:05:42;7.22;;;5.28;;
8536;SDS011;4306;50.210;10.628;2023-02-22T10:08:14;6.32;;;4.57;;
8536;SDS011;4306;50.210;10.628;2023-02-22T10:10:44;6.32;;;4.95;;
8536;SDS011;4306;50.210;10.628;2023-02-22T10:13:19;8.57;;;5.88;;
8536;SDS011;4306;50.210;10.628;2023-02-22T10:15:53;11.10;;;7.82;;
8536;SDS011;4306;50.210;10.628;2023-02-22T10:18:33;8.75;;;7.45;;
8536;SDS011;4306;50.210;10.628;2023-02-22T10:21:12;11.35;;;5.95;;
8536;SDS011;4306;50.210;10.628;2023-02-22T10:23:54;9.70;;;6.20;;
8536;SDS011;4306;50.210;10.628;2023-02-22T10:26:32;8.90;;;6.80;;
8536;SDS011;4306;50.210;10.628;2023-02-22T10:29:02;9.50;;;6.53;;
8536;SDS011;4306;50.210;10.628;2023-02-22T10:31:34;9.60;;;7.03;;
8536;SDS011;4306;50.210;10.628;2023-02-22T10:34:13;6.53;;;5.25;;
8536;SDS011;4306;50.210;10.628;2023-02-22T10:36:42;7.18;;;5.93;;
8536;SDS011;4306;50.210;10.628;2023-02-22T10:39:15;7.25;;;5.78;;
8536;SDS011;4306;50.210;10.628;2023-02-22T10:41:51;8.25;;;6.60;;
8536;SDS011;4306;50.210;10.628;2023-02-22T10:44:22;8.57;;;6.28;;
8536;SDS011;4306;50.210;10.628;2023-02-22T10:46:49;8.00;;;5.72;;
8536;SDS011;4306;50.210;10.628;2023-02-22T10:49:19;10.95;;;8.13;;
8536;SDS011;4306;50.210;10.628;2023-02-22T10:51:51;10.05;;;7.05;;
8536;SDS011;4306;50.210;10.628;2023-02-22T10:54:25;8.48;;;5.68;;
8536;SDS011;4306;50.210;10.628;2023-02-22T10:56:56;7.50;;;5.95;;
8536;SDS011;4306;50.210;10.628;2023-02-22T10:59:25;9.95;;;6.00;;
8536;SDS011;4306;50.210;10.628;2023-02-22T11:01:54;10.27;;;8.27;;
8536;SDS011;4306;50.210;10.628;2023-02-22T11:04:21;9.77;;;6.00;;
8536;SDS011;4306;50.210;10.628;2023-02-22T11:06:49;9.90;;;6.63;;
8536;SDS011;4306;50.210;10.628;2023-02-22T11:09:50;11.70;;;6.75;;
8536;SDS011;4306;50.210;10.628;2023-02-22T11:12:20;10.25;;;7.05;;
8536;SDS011;4306;50.210;10.628;2023-02-22T11:14:52;8.90;;;5.90;;
8536;SDS011;4306;50.210;10.628;2023-02-22T11:17:23;10.25;;;7.40;;
8536;SDS011;4306;50.210;10.628;2023-02-22T11:19:55;8.55;;;5.63;;
8536;SDS011;4306;50.210;10.628;2023-02-22T11:22:25;7.78;;;5.00;;
8536;SDS011;4306;50.210;10.628;2023-02-22T11:24:55;7.15;;;5.00;;
8536;SDS011;4306;50.210;10.628;2023-02-22T11:27:30;9.93;;;6.32;;
8536;SDS011;4306;50.210;10.628;2023-02-22T11:30:17;7.32;;;5.20;;
8536;SDS011;4306;50.210;10.628;2023-02-22T11:32:52;12.05;;;6.35;;
8536;SDS011;4306;50.210;10.628;2023-02-22T11:35:32;11.43;;;7.05;;
8536;SDS011;4306;50.210;10.628;2023-02-22T11:38:12;10.55;;;5.03;;
8536;SDS011;4306;50.210;10.628;2023-02-22T11:40:43;11.68;;;6.05;;
8536;SDS011;4306;50.210;10.628;2023-02-22T11:43:13;9.07;;;6.38;;
8536;SDS011;4306;50.210;10.628;2023-02-22T11:45:54;9.48;;;5.60;;
8536;SDS011;4306;50.210;10.628;2023-02-22T11:48:24;7.75;;;5.07;;
8536;SDS011;4306;50.210;10.628;2023-02-22T11:50:57;7.50;;;4.20;;
8536;SDS011;4306;50.210;10.628;2023-02-22T11:56:33;8.32;;;4.82;;
8536;SDS011;4306;50.210;10.628;2023-02-22T11:59:08;8.07;;;4.80;;
8536;SDS011;4306;50.210;10.628;2023-02-22T12:01:46;6.05;;;4.45;;
8536;SDS011;4306;50.210;10.628;2023-02-22T12:07:12;18.00;;;10.13;;
8536;SDS011;4306;50.210;10.628;2023-02-22T12:09:51;27.95;;;15.38;;
8536;SDS011;4306;50.210;10.628;2023-02-22T12:12:27;17.63;;;11.63;;
8536;SDS011;4306;50.210;10.628;2023-02-22T12:15:04;8.07;;;6.40;;
8536;SDS011;4306;50.210;10.628;2023-02-22T12:17:41;5.57;;;4.25;;
8536;SDS011;4306;50.210;10.628;2023-02-22T12:20:16;7.78;;;4.88;;
8536;SDS011;4306;50.210;10.628;2023-02-22T12:22:51;8.73;;;4.90;;
8536;SDS011;4306;50.210;10.628;2023-02-22T12:25:27;7.03;;;4.85;;
8536;SDS011;4306;50.210;10.628;2023-02-22T12:27:59;8.68;;;6.03;;
8536;SDS011;4306;50.210;10.628;2023-02-22T12:30:36;8.25;;;5.75;;
8536;SDS011;4306;50.210;10.628;2023-02-22T12:33:09;11.82;;;5.82;;
8536;SDS011;4306;50.210;10.628;2023-02-22T12:35:41;8.65;;;5.97;;
8536;SDS011;4306;50.210;10.628;2023-02-22T12:38:16;9.48;;;7.22;;
8536;SDS011;4306;50.210;10.628;2023-02-22T12:40:49;9.82;;;6.18;;
8536;SDS011;4306;50.210;10.628;2023-02-22T12:43:22;10.30;;;5.13;;
8536;SDS011;4306;50.210;10.628;2023-02-22T12:45:56;7.57;;;4.20;;
8536;SDS011;4306;50.210;10.628;2023-02-22T12:48:33;7.60;;;5.15;;
8536;SDS011;4306;50.210;10.628;2023-02-22T12:51:06;8.30;;;4.80;;
8536;SDS011;4306;50.210;10.628;2023-02-22T12:53:54;8.05;;;5.45;;
8536;SDS011;4306;50.210;10.628;2023-02-22T12:56:29;8.70;;;4.93;;
8536;SDS011;4306;50.210;10.628;2023-02-22T12:59:00;7.05;;;4.65;;
8536;SDS011;4306;50.210;10.628;2023-02-22T13:01:35;6.85;;;4.80;;
8536;SDS011;4306;50.210;10.628;2023-02-22T13:04:04;14.50;;;10.10;;
8536;SDS011;4306;50.210;10.628;2023-02-22T13:06:39;8.63;;;6.30;;
8536;SDS011;4306;50.210;10.628;2023-02-22T13:09:22;5.78;;;4.50;;
8536;SDS011;4306;50.210;10.628;2023-02-22T13:12:08;7.97;;;4.47;;
8536;SDS011;4306;50.210;10.628;2023-02-22T13:14:44;6.72;;;5.05;;
8536;SDS011;4306;50.210;10.628;2023-02-22T13:17:18;7.47;;;5.32;;
8536;SDS011;4306;50.210;10.628;2023-02-22T13:19:51;8.90;;;5.60;;
8536;SDS011;4306;50.210;10.628;2023-02-22T13:22:25;7.88;;;5.63;;
8536;SDS011;4306;50.210;10.628;2023-02-22T13:24:57;7.50;;;5.18;;
8536;SDS011;4306;50.210;10.628;2023-02-22T13:27:32;6.00;;;4.40;;
8536;SDS011;4306;50.210;10.628;2023-02-22T13:30:03;7.53;;;5.05;;
8536;SDS011;4306;50.210;10.628;2023-02-22T13:32:41;6.90;;;4.10;;
8536;SDS011;4306;50.210;10.628;2023-02-22T13:35:25;8.20;;;5.47;;
8536;SDS011;4306;50.210;10.628;2023-02-22T13:38:09;6.95;;;4.22;;
8536;SDS011;4306;50.210;10.628;2023-02-22T13:40:59;7.60;;;4.25;;
8536;SDS011;4306;50.210;10.628;2023-02-22T13:43:44;7.30;;;4.60;;
8536;SDS011;4306;50.210;10.628;2023-02-22T13:46:42;8.13;;;5.38;;
8536;SDS011;4306;50.210;10.628;2023-02-22T13:49:30;7.78;;;5.18;;
8536;SDS011;4306;50.210;10.628;2023-02-22T13:52:13;9.52;;;6.20;;
8536;SDS011;4306;50.210;10.628;2023-02-22T13:54:43;11.65;;;8.48;;
8536;SDS011;4306;50.210;10.628;2023-02-22T13:57:19;6.13;;;4.00;;
8536;SDS011;4306;50.210;10.628;2023-02-22T13:59:54;4.93;;;3.55;;
8536;SDS011;4306;50.210;10.628;2023-02-22T14:02:57;5.90;;;3.15;;
8536;SDS011;4306;50.210;10.628;2023-02-22T14:05:48;7.63;;;4.70;;
8536;SDS011;4306;50.210;10.628;2023-02-22T14:14:16;7.93;;;4.05;;
8536;SDS011;4306;50.210;10.628;2023-02-22T14:16:44;6.63;;;3.65;;
8536;SDS011;4306;50.210;10.628;2023-02-22T14:20:02;5.97;;;3.53;;
8536;SDS011;4306;50.210;10.628;2023-02-22T14:22:38;5.45;;;3.20;;
8536;SDS011;4306;50.210;10.628;2023-02-22T14:25:13;7.10;;;4.10;;
8536;SDS011;4306;50.210;10.628;2023-02-22T14:27:58;6.22;;;3.63;;
8536;SDS011;4306;50.210;10.628;2023-02-22T14:30:27;6.03;;;3.40;;
8536;SDS011;4306;50.210;10.628;2023-02-22T14:32:57;5.95;;;3.50;;
8536;SDS011;4306;50.210;10.628;2023-02-22T14:35:24;6.63;;;3.40;;
8536;SDS011;4306;50.210;10.628;2023-02-22T14:38:03;5.75;;;3.63;;
8536;SDS011;4306;50.210;10.628;2023-02-22T14:40:38;5.95;;;3.28;;
8536;SDS011;4306;50.210;10.628;2023-02-22T14:43:09;6.55;;;4.25;;
8536;SDS011;4306;50.210;10.628;2023-02-22T14:45:44;5.95;;;3.70;;
8536;SDS011;4306;50.210;10.628;2023-02-22T14:48:17;7.10;;;3.78;;
8536;SDS011;4306;50.210;10.628;2023-02-22T14:50:50;6.03;;;3.63;;
8536;SDS011;4306;50.210;10.628;2023-02-22T14:53:21;7.28;;;4.45;;
8536;SDS011;4306;50.210;10.628;2023-02-22T14:55:53;7.70;;;4.50;;
8536;SDS011;4306;50.210;10.628;2023-02-22T14:58:28;7.43;;;4.78;;
8536;SDS011;4306;50.210;10.628;2023-02-22T15:00:59;7.95;;;4.55;;
8536;SDS011;4306;50.210;10.628;2023-02-22T15:03:48;6.43;;;3.80;;
8536;SDS011;4306;50.210;10.628;2023-02-22T15:06:16;9.02;;;4.47;;
8536;SDS011;4306;50.210;10.628;2023-02-22T15:08:44;7.82;;;4.45;;
8536;SDS011;4306;50.210;10.628;2023-02-22T15:11:18;7.18;;;4.63;;
8536;SDS011;4306;50.210;10.628;2023-02-22T15:13:48;6.68;;;3.97;;
8536;SDS011;4306;50.210;10.628;2023-02-22T15:16:16;6.93;;;3.90;;
8536;SDS011;4306;50.210;10.628;2023-02-22T15:18:43;6.65;;;4.13;;
8536;SDS011;4306;50.210;10.628;2023-02-22T15:21:14;7.15;;;4.35;;
8536;SDS011;4306;50.210;10.628;2023-02-22T15:23:44;37.83;;;22.40;;
8536;SDS011;4306;50.210;10.628;2023-02-22T15:26:17;23.77;;;14.90;;
8536;SDS011;4306;50.210;10.628;2023-02-22T15:28:51;12.25;;;7.78;;
8536;SDS011;4306;50.210;10.628;2023-02-22T15:31:23;8.38;;;5.55;;
8536;SDS011;4306;50.210;10.628;2023-02-22T15:33:54;6.82;;;3.83;;
8536;SDS011;4306;50.210;10.628;2023-02-22T15:36:23;8.45;;;4.03;;